Time;durP1;ratioP1;P1;durP2;ratioP2;P2;SDS_P1;SDS_P2;PMS_P1;PMS_P2;Temp;Humidity;BMP_temperature;BMP_pressure;BME280_temperature;BME280_humidity;BME280_pressure;Samples;Min_cycle;Max_cycle;Signal;HPM_P1;HPM_P2
2022/03/17 00:02:25;;;;;;;10.90;7.50;;;9.20;99.90;;;;;;4991326;28;20236;-47
2022/03/17 00:04:52;;;;;;;10.80;7.93;;;9.20;99.90;;;;;;5003695;28;20211;-46
2022/03/17 00:07:20;;;;;;;13.80;7.93;;;9.20;99.90;;;;;;5006656;28;20206;-47
2022/03/17 00:09:47;;;;;;;12.67;7.37;;;9.20;99.90;;;;;;4999375;28;20821;-45
2022/03/17 00:12:14;;;;;;;12.17;6.93;;;9.20;99.90;;;;;;5011140;28;20356;-46
2022/03/17 00:14:42;;;;;;;13.23;8.43;;;9.30;99.90;;;;;;4989048;28;21103;-45
2022/03/17 00:17:09;;;;;;;11.23;7.57;;;9.20;99.90;;;;;;4996439;28;20413;-47
2022/03/17 00:19:37;;;;;;;11.07;7.00;;;9.20;99.90;;;;;;4998550;28;20280;-45
2022/03/17 00:22:06;;;;;;;10.83;7.50;;;9.30;99.90;;;;;;4997699;28;20430;-45
2022/03/17 00:24:33;;;;;;;12.90;7.83;;;9.30;99.90;;;;;;5001754;28;20459;-44
2022/03/17 00:27:00;;;;;;;11.97;7.40;;;9.30;99.90;;;;;;5015810;28;20565;-45
2022/03/17 00:29:27;;;;;;;14.40;8.03;;;9.30;99.90;;;;;;4998632;28;20361;-45
2022/03/17 00:31:55;;;;;;;13.67;7.70;;;9.50;99.90;;;;;;5001394;28;20236;-45
2022/03/17 00:34:22;;;;;;;12.70;8.07;;;9.30;99.90;;;;;;4986368;28;20234;-45
2022/03/17 00:36:48;;;;;;;12.40;7.67;;;9.30;99.90;;;;;;5001135;28;20408;-45
2022/03/17 00:39:15;;;;;;;15.20;8.10;;;9.30;99.90;;;;;;5016061;28;20202;-43
2022/03/17 00:41:42;;;;;;;10.57;7.47;;;9.30;99.90;;;;;;5004297;28;20210;-49
2022/03/17 00:44:09;;;;;;;13.57;7.80;;;9.20;99.90;;;;;;5011935;28;20305;-46
2022/03/17 00:46:37;;;;;;;10.87;7.50;;;9.30;99.90;;;;;;4992463;28;20281;-49
2022/03/17 00:49:05;;;;;;;10.47;7.37;;;9.30;99.90;;;;;;4985795;28;20236;-49
2022/03/17 00:51:33;;;;;;;13.03;7.50;;;9.30;99.90;;;;;;5008369;28;20209;-48
2022/03/17 00:53:59;;;;;;;12.63;8.07;;;9.30;99.90;;;;;;5001097;28;20432;-44
2022/03/17 00:56:27;;;;;;;12.03;7.73;;;9.30;99.90;;;;;;5004560;28;20209;-49
2022/03/17 00:58:54;;;;;;;13.30;8.37;;;9.20;99.90;;;;;;5000492;28;20650;-43
2022/03/17 01:01:21;;;;;;;13.67;8.70;;;9.30;99.90;;;;;;5017517;28;20206;-45
2022/03/17 01:03:48;;;;;;;14.77;8.60;;;9.30;99.90;;;;;;4989770;28;20328;-46
2022/03/17 01:06:16;;;;;;;11.67;7.93;;;9.30;99.90;;;;;;4997193;28;20378;-44
2022/03/17 01:08:43;;;;;;;13.00;8.33;;;9.30;99.90;;;;;;5018354;28;20297;-45
2022/03/17 01:11:10;;;;;;;14.23;8.40;;;9.20;99.90;;;;;;4987200;28;22937;-46
2022/03/17 01:13:37;;;;;;;13.60;9.00;;;9.20;99.90;;;;;;5023286;28;20296;-45
2022/03/17 01:16:04;;;;;;;14.43;8.60;;;9.20;99.90;;;;;;5005873;28;20464;-46
2022/03/17 01:18:31;;;;;;;12.10;8.63;;;9.20;99.90;;;;;;4992804;28;20206;-46
2022/03/17 01:20:58;;;;;;;11.87;8.60;;;9.30;99.90;;;;;;4997402;28;20286;-46
2022/03/17 01:23:26;;;;;;;12.43;8.93;;;9.20;99.90;;;;;;5000178;28;20233;-46
2022/03/17 01:25:53;;;;;;;14.27;9.77;;;9.20;99.90;;;;;;5007377;28;20468;-45
2022/03/17 01:28:20;;;;;;;14.83;9.13;;;9.20;99.90;;;;;;5005345;28;20221;-46
2022/03/17 01:30:48;;;;;;;15.93;9.90;;;9.20;99.90;;;;;;4993140;28;20305;-46
2022/03/17 01:33:16;;;;;;;15.50;9.80;;;9.20;99.90;;;;;;5008671;28;20253;-45
2022/03/17 01:35:42;;;;;;;13.57;9.70;;;9.20;99.90;;;;;;4997020;28;20286;-46
2022/03/17 01:38:09;;;;;;;13.43;9.37;;;9.20;99.90;;;;;;5010897;28;20199;-45
2022/03/17 01:40:38;;;;;;;14.60;9.13;;;9.20;99.90;;;;;;5003139;28;20209;-45
2022/03/17 01:43:05;;;;;;;12.73;9.13;;;9.20;99.90;;;;;;4987513;28;20566;-44
2022/03/17 01:45:32;;;;;;;17.53;9.53;;;9.20;99.90;;;;;;5004942;28;20281;-44
2022/03/17 01:47:59;;;;;;;14.90;9.27;;;9.10;99.90;;;;;;5009698;28;20224;-44
2022/03/17 01:50:26;;;;;;;16.13;9.63;;;9.10;99.90;;;;;;5003485;28;20217;-45
2022/03/17 01:52:53;;;;;;;13.27;10.07;;;9.20;99.90;;;;;;4988642;28;20423;-45
2022/03/17 01:55:21;;;;;;;15.97;10.17;;;9.10;99.90;;;;;;5000409;28;20284;-45
2022/03/17 01:57:50;;;;;;;11.83;8.67;;;9.10;99.90;;;;;;4996768;28;20210;-46
2022/03/17 02:00:19;;;;;;;13.17;9.37;;;9.10;99.90;;;;;;4999557;28;20456;-46
2022/03/17 02:02:47;;;;;;;14.70;10.43;;;9.10;99.90;;;;;;4988373;28;20313;-45
2022/03/17 02:05:15;;;;;;;16.73;9.60;;;9.00;99.90;;;;;;5003742;28;20445;-46
2022/03/17 02:07:45;;;;;;;13.33;9.77;;;9.00;99.90;;;;;;4998858;28;20293;-46
2022/03/17 02:10:11;;;;;;;14.80;10.20;;;9.00;99.90;;;;;;4997108;28;20352;-44
2022/03/17 02:15:27;;;;;;;16.03;10.70;;;9.10;99.90;;;;;;5001281;28;20501;-45
2022/03/17 02:17:54;;;;;;;13.10;10.07;;;9.00;99.90;;;;;;5003904;28;20469;-46
2022/03/17 02:20:24;;;;;;;17.17;10.47;;;9.00;99.90;;;;;;5002370;28;20454;-46
2022/03/17 02:22:53;;;;;;;13.63;9.80;;;9.00;99.90;;;;;;4990327;28;20316;-45
2022/03/17 02:25:34;;;;;;;17.97;10.30;;;9.00;99.90;;;;;;5009680;28;20221;-45
2022/03/17 02:28:02;;;;;;;13.47;9.33;;;9.10;99.90;;;;;;5004180;28;20210;-46
2022/03/17 02:30:31;;;;;;;12.87;9.43;;;9.10;99.90;;;;;;4998915;28;20530;-46
2022/03/17 02:33:00;;;;;;;14.30;10.93;;;9.00;99.90;;;;;;5019573;28;20501;-45
2022/03/17 02:35:27;;;;;;;12.77;9.93;;;9.10;99.90;;;;;;4998370;28;20218;-48
2022/03/17 02:37:55;;;;;;;14.53;9.90;;;9.00;99.90;;;;;;5003232;28;20286;-45
2022/03/17 02:40:25;;;;;;;15.23;10.47;;;9.00;99.90;;;;;;4995310;28;20218;-45
2022/03/17 02:42:52;;;;;;;18.23;11.00;;;9.00;99.90;;;;;;4992474;28;20221;-45
2022/03/17 02:45:19;;;;;;;15.43;10.80;;;9.00;99.90;;;;;;4996365;28;20333;-46
2022/03/17 02:47:46;;;;;;;15.20;10.57;;;9.00;99.90;;;;;;5001175;28;20225;-45
2022/03/17 02:50:13;;;;;;;13.00;10.20;;;9.00;99.90;;;;;;4998465;28;20234;-46
2022/03/17 02:52:41;;;;;;;15.77;10.73;;;9.00;99.90;;;;;;4997025;28;20744;-45
2022/03/17 02:55:10;;;;;;;15.03;10.20;;;9.00;99.90;;;;;;4998482;28;20224;-45
2022/03/17 02:57:39;;;;;;;15.27;10.17;;;8.90;99.90;;;;;;4997004;28;20215;-44
2022/03/17 03:00:08;;;;;;;17.67;11.03;;;8.90;99.90;;;;;;5003490;28;20277;-46
2022/03/17 03:02:35;;;;;;;20.17;11.37;;;8.90;99.90;;;;;;5000662;28;20586;-45
2022/03/17 03:05:02;;;;;;;16.70;10.77;;;9.00;99.90;;;;;;5012123;28;20332;-44
2022/03/17 03:07:28;;;;;;;14.97;10.43;;;9.00;99.90;;;;;;5011054;28;20206;-45
2022/03/17 03:09:56;;;;;;;15.33;10.43;;;9.00;99.90;;;;;;4971202;28;20223;-46
2022/03/17 03:12:23;;;;;;;16.23;11.03;;;8.90;99.90;;;;;;5004867;28;20253;-45
2022/03/17 03:14:52;;;;;;;16.63;11.20;;;8.90;99.90;;;;;;4990903;28;20471;-45
2022/03/17 03:17:21;;;;;;;18.50;11.33;;;8.90;99.90;;;;;;5002488;28;20203;-46
2022/03/17 03:19:48;;;;;;;16.13;11.47;;;8.90;99.90;;;;;;5001127;28;20215;-44
2022/03/17 03:22:16;;;;;;;18.30;11.33;;;8.90;99.90;;;;;;5015179;28;20714;-45
2022/03/17 03:24:43;;;;;;;17.70;11.43;;;8.90;99.90;;;;;;4991193;28;20286;-44
2022/03/17 03:27:09;;;;;;;18.67;12.50;;;8.90;99.90;;;;;;5013310;28;20208;-46
2022/03/17 03:33:01;;;;;;;17.20;11.30;;;8.90;99.90;;;;;;5004323;28;20291;-45
2022/03/17 03:38:11;;;;;;;19.10;12.73;;;8.90;99.90;;;;;;4999513;28;20463;-46
2022/03/17 03:40:38;;;;;;;17.87;12.57;;;8.90;99.90;;;;;;4981289;28;21139;-45
2022/03/17 03:43:05;;;;;;;18.43;12.20;;;8.90;99.90;;;;;;5016322;28;20226;-44
2022/03/17 03:45:32;;;;;;;16.30;12.33;;;8.90;99.90;;;;;;5002842;28;20211;-46
2022/03/17 03:48:01;;;;;;;17.37;12.50;;;8.90;99.90;;;;;;4994726;28;20859;-45
2022/03/17 03:50:28;;;;;;;17.93;13.23;;;8.90;99.90;;;;;;4997690;28;20325;-46
2022/03/17 03:52:55;;;;;;;18.87;13.13;;;8.90;99.90;;;;;;4992406;28;20431;-46
2022/03/17 03:55:22;;;;;;;20.77;14.00;;;8.80;99.90;;;;;;4994152;28;20475;-46
2022/03/17 03:57:49;;;;;;;17.93;13.00;;;8.90;99.90;;;;;;4985638;28;20209;-46
2022/03/17 04:00:24;;;;;;;20.90;14.07;;;8.80;99.90;;;;;;5002657;28;20218;-45
2022/03/17 04:02:51;;;;;;;18.83;12.73;;;8.80;99.90;;;;;;5002927;28;20226;-45
2022/03/17 04:05:21;;;;;;;20.70;14.40;;;8.80;99.90;;;;;;5002359;28;20244;-45
2022/03/17 04:07:48;;;;;;;19.30;13.53;;;8.90;99.90;;;;;;5013115;28;20477;-45
2022/03/17 04:10:14;;;;;;;19.87;13.37;;;8.90;99.90;;;;;;5002563;28;20808;-45
2022/03/17 04:12:42;;;;;;;17.93;13.33;;;8.90;99.90;;;;;;4974351;28;20352;-45
2022/03/17 04:15:09;;;;;;;19.03;13.80;;;8.80;99.90;;;;;;4997779;28;20206;-45
2022/03/17 04:17:36;;;;;;;21.47;14.33;;;8.80;99.90;;;;;;4999309;28;20217;-45
2022/03/17 04:20:05;;;;;;;18.87;13.33;;;8.80;99.90;;;;;;5000453;28;21555;-46
2022/03/17 04:22:34;;;;;;;21.30;13.90;;;8.90;99.90;;;;;;5017186;28;20240;-45
2022/03/17 04:25:01;;;;;;;22.03;13.93;;;8.80;99.90;;;;;;4995116;28;20210;-46
2022/03/17 04:27:28;;;;;;;22.37;14.43;;;8.80;99.90;;;;;;4996645;28;20216;-46
2022/03/17 04:29:55;;;;;;;19.70;14.00;;;8.80;99.90;;;;;;5007004;28;20588;-46
2022/03/17 04:32:22;;;;;;;21.83;14.77;;;8.80;99.90;;;;;;4999572;28;20233;-46
2022/03/17 04:34:49;;;;;;;21.73;14.70;;;8.70;99.90;;;;;;4992143;28;20224;-47
2022/03/17 04:37:16;;;;;;;20.90;13.93;;;8.80;99.90;;;;;;4990842;28;20202;-46
2022/03/17 04:39:44;;;;;;;19.57;14.60;;;8.80;99.90;;;;;;5004362;28;20389;-45
2022/03/17 04:42:12;;;;;;;22.70;14.40;;;8.80;99.90;;;;;;4972288;28;20226;-46
2022/03/17 04:44:38;;;;;;;20.03;12.77;;;8.80;99.90;;;;;;5012390;28;21312;-45
2022/03/17 04:47:06;;;;;;;21.00;14.17;;;8.70;99.90;;;;;;4997603;28;20282;-46
2022/03/17 04:49:33;;;;;;;22.47;14.23;;;8.80;99.90;;;;;;4982150;28;20230;-46
2022/03/17 04:52:00;;;;;;;21.00;13.97;;;8.80;99.90;;;;;;5010505;28;20205;-46
2022/03/17 04:54:27;;;;;;;18.50;13.77;;;8.80;99.90;;;;;;4997622;28;20211;-46
2022/03/17 04:56:55;;;;;;;23.17;14.77;;;8.80;99.90;;;;;;4978742;28;20217;-46
2022/03/17 04:59:22;;;;;;;22.67;14.87;;;8.70;99.90;;;;;;5005532;28;20198;-45
2022/03/17 05:01:49;;;;;;;23.17;14.97;;;8.80;99.90;;;;;;4976924;28;20210;-44
2022/03/17 05:04:16;;;;;;;23.90;14.50;;;8.80;99.90;;;;;;5017549;28;20300;-46
2022/03/17 05:06:43;;;;;;;22.10;15.40;;;8.70;99.90;;;;;;4999097;28;20317;-44
2022/03/17 05:09:09;;;;;;;21.43;14.10;;;8.80;99.90;;;;;;5001971;28;20398;-44
2022/03/17 05:11:37;;;;;;;21.10;15.23;;;8.80;99.90;;;;;;4993008;28;20281;-46
2022/03/17 05:14:05;;;;;;;22.00;14.97;;;8.80;99.90;;;;;;4986962;28;20569;-44
2022/03/17 05:16:32;;;;;;;24.80;15.97;;;8.70;99.90;;;;;;4996075;28;20202;-45
2022/03/17 05:18:59;;;;;;;24.33;15.17;;;8.70;99.90;;;;;;4992158;28;20213;-45
2022/03/17 05:21:26;;;;;;;20.70;14.80;;;8.70;99.90;;;;;;5000569;28;20535;-45
2022/03/17 05:23:53;;;;;;;21.17;16.20;;;8.70;99.90;;;;;;5004827;28;20241;-44
2022/03/17 05:26:21;;;;;;;19.90;15.20;;;8.50;99.90;;;;;;4990344;28;20488;-45
2022/03/17 05:28:47;;;;;;;21.37;15.03;;;8.80;99.90;;;;;;4995124;28;20214;-46
2022/03/17 05:31:16;;;;;;;23.23;15.43;;;8.80;99.90;;;;;;4988327;28;20229;-44
2022/03/17 05:33:42;;;;;;;25.33;15.07;;;8.80;99.90;;;;;;4999014;28;20276;-46
2022/03/17 05:36:09;;;;;;;23.60;15.43;;;8.80;99.90;;;;;;4992742;28;20213;-44
2022/03/17 05:38:36;;;;;;;21.10;14.63;;;8.80;99.90;;;;;;4988191;28;20210;-45
2022/03/17 05:41:05;;;;;;;25.93;16.27;;;8.80;99.90;;;;;;5001856;28;20206;-46
2022/03/17 05:43:32;;;;;;;23.83;16.33;;;8.80;99.90;;;;;;5010975;28;20625;-45
2022/03/17 05:45:59;;;;;;;23.97;16.07;;;8.80;99.90;;;;;;4978336;28;20626;-44
2022/03/17 05:48:27;;;;;;;23.70;15.57;;;8.80;99.90;;;;;;4993474;28;20286;-46
2022/03/17 05:50:54;;;;;;;24.50;16.80;;;8.80;99.90;;;;;;5005983;28;20459;-45
2022/03/17 05:53:21;;;;;;;24.13;16.10;;;8.80;99.90;;;;;;5001822;28;20258;-46
2022/03/17 05:55:48;;;;;;;23.60;16.10;;;8.80;99.90;;;;;;4992819;28;20412;-45
2022/03/17 05:58:15;;;;;;;22.37;15.07;;;8.80;99.90;;;;;;4984530;28;20579;-46
2022/03/17 06:00:42;;;;;;;25.00;16.50;;;8.80;99.90;;;;;;4986659;28;20431;-44
2022/03/17 06:03:08;;;;;;;24.30;16.97;;;8.80;99.90;;;;;;4998643;28;20236;-45
2022/03/17 06:05:37;;;;;;;23.67;16.07;;;8.80;99.90;;;;;;5000325;28;20548;-49
2022/03/17 06:08:04;;;;;;;27.87;16.70;;;8.80;99.90;;;;;;4984689;28;20286;-45
2022/03/17 06:10:33;;;;;;;26.80;16.23;;;8.80;99.90;;;;;;4983976;28;21319;-49
2022/03/17 06:13:01;;;;;;;22.87;16.23;;;8.80;99.90;;;;;;4997824;28;20284;-48
2022/03/17 06:15:29;;;;;;;23.93;16.83;;;8.80;99.90;;;;;;4997867;28;20264;-50
2022/03/17 06:17:57;;;;;;;23.83;17.17;;;8.80;99.90;;;;;;4988589;28;20395;-46
2022/03/17 06:20:27;;;;;;;22.00;16.13;;;8.90;99.90;;;;;;4999206;28;20202;-46
2022/03/17 06:22:58;;;;;;;24.47;16.57;;;8.90;99.90;;;;;;4997692;28;20956;-46
2022/03/17 06:25:27;;;;;;;23.03;16.27;;;8.80;99.90;;;;;;5003338;28;20210;-46
2022/03/17 06:27:54;;;;;;;29.20;16.63;;;8.80;99.90;;;;;;5009691;28;20549;-45
2022/03/17 06:30:23;;;;;;;21.97;15.33;;;8.80;99.90;;;;;;5018718;28;20467;-46
2022/03/17 06:32:50;;;;;;;24.10;17.60;;;8.80;99.90;;;;;;4997485;28;20636;-45
2022/03/17 06:35:18;;;;;;;27.43;18.80;;;8.80;99.90;;;;;;5001666;28;20289;-46
2022/03/17 06:37:46;;;;;;;28.70;17.83;;;8.80;99.90;;;;;;5003167;28;20343;-45
2022/03/17 06:40:16;;;;;;;29.93;18.80;;;8.80;99.90;;;;;;5001096;28;20281;-45
2022/03/17 06:42:43;;;;;;;27.17;18.10;;;8.80;99.90;;;;;;5018735;28;20228;-46
2022/03/17 06:45:11;;;;;;;26.53;17.23;;;8.80;99.90;;;;;;4998024;28;20285;-46
2022/03/17 06:47:38;;;;;;;24.27;17.57;;;8.70;99.90;;;;;;4995363;28;20210;-45
2022/03/17 06:50:06;;;;;;;26.50;17.90;;;8.70;99.90;;;;;;5002842;28;20232;-45
2022/03/17 06:52:33;;;;;;;26.50;17.17;;;8.60;99.90;;;;;;5012481;28;20250;-44
2022/03/17 06:55:00;;;;;;;24.53;17.83;;;8.60;99.90;;;;;;4998038;28;20301;-46
2022/03/17 06:57:28;;;;;;;25.10;18.30;;;8.60;99.90;;;;;;5003770;28;20404;-49
2022/03/17 06:59:55;;;;;;;26.00;18.23;;;8.60;99.90;;;;;;5001353;28;20307;-46
2022/03/17 07:02:22;;;;;;;30.07;18.07;;;8.50;99.90;;;;;;4994102;28;20305;-48
2022/03/17 07:04:49;;;;;;;27.87;18.43;;;8.60;99.90;;;;;;4981149;28;20380;-47
2022/03/17 07:07:16;;;;;;;27.87;18.90;;;8.50;99.90;;;;;;5009903;28;20281;-47
2022/03/17 07:09:43;;;;;;;27.03;18.20;;;8.50;99.90;;;;;;4998686;28;20223;-45
2022/03/17 07:12:11;;;;;;;29.47;18.80;;;8.40;99.90;;;;;;4989754;28;20237;-47
2022/03/17 07:14:40;;;;;;;28.43;18.60;;;8.40;99.90;;;;;;5012493;28;20264;-45
2022/03/17 07:17:07;;;;;;;27.37;18.63;;;8.40;99.90;;;;;;5016535;28;20233;-44
2022/03/17 07:19:35;;;;;;;30.00;20.07;;;8.40;99.90;;;;;;4992292;28;20214;-50
2022/03/17 07:22:02;;;;;;;28.73;18.87;;;8.40;99.90;;;;;;5004956;28;20277;-46
2022/03/17 07:24:29;;;;;;;25.97;18.47;;;8.30;99.90;;;;;;5008153;28;20268;-45
2022/03/17 07:26:58;;;;;;;27.13;19.30;;;8.40;99.90;;;;;;4990258;28;20452;-46
2022/03/17 07:29:25;;;;;;;28.83;18.90;;;8.40;99.90;;;;;;4991050;28;20215;-44
2022/03/17 07:31:54;;;;;;;29.87;19.73;;;8.40;99.90;;;;;;5008241;28;20459;-45
2022/03/17 07:34:21;;;;;;;26.33;18.37;;;8.40;99.90;;;;;;4995083;28;20272;-47
2022/03/17 07:36:48;;;;;;;26.73;19.00;;;8.40;99.90;;;;;;4991478;28;20236;-47
2022/03/17 07:39:15;;;;;;;27.23;19.17;;;8.50;99.90;;;;;;5014523;28;20206;-46
2022/03/17 07:41:42;;;;;;;28.40;19.57;;;8.50;99.90;;;;;;4985928;28;20572;-46
2022/03/17 07:44:09;;;;;;;30.30;19.70;;;8.50;99.90;;;;;;4973319;28;20241;-47
2022/03/17 07:46:36;;;;;;;27.60;18.80;;;8.50;99.90;;;;;;5006225;28;20245;-47
2022/03/17 07:49:05;;;;;;;29.67;19.60;;;8.50;99.90;;;;;;4971943;28;20206;-50
2022/03/17 07:51:32;;;;;;;30.77;20.30;;;8.50;99.90;;;;;;5000499;28;20223;-47
2022/03/17 07:53:58;;;;;;;31.83;20.10;;;8.40;99.90;;;;;;4992104;28;20310;-48
2022/03/17 07:56:25;;;;;;;29.33;19.80;;;8.50;99.90;;;;;;4998485;28;20854;-44
2022/03/17 07:58:52;;;;;;;25.57;19.43;;;8.50;99.90;;;;;;4995128;28;21584;-48
2022/03/17 08:01:24;;;;;;;28.70;20.00;;;8.50;99.90;;;;;;4994372;28;20411;-44
2022/03/17 08:03:51;;;;;;;29.10;20.33;;;8.50;99.90;;;;;;5005121;28;20229;-47
2022/03/17 08:06:19;;;;;;;28.50;21.03;;;8.50;99.90;;;;;;4996208;28;20234;-45
2022/03/17 08:08:47;;;;;;;29.50;20.03;;;8.60;99.90;;;;;;5009143;28;20216;-46
2022/03/17 08:11:14;;;;;;;32.30;20.27;;;8.60;99.90;;;;;;4997276;28;20487;-45
2022/03/17 08:13:41;;;;;;;29.77;19.47;;;8.70;99.90;;;;;;5018081;28;20250;-45
2022/03/17 08:16:10;;;;;;;29.03;19.53;;;8.70;99.90;;;;;;4994744;28;20577;-45
2022/03/17 08:18:38;;;;;;;30.30;20.30;;;8.70;99.90;;;;;;4996003;28;20486;-46
2022/03/17 08:21:05;;;;;;;31.43;20.60;;;8.70;99.90;;;;;;4999375;28;20281;-45
2022/03/17 08:23:33;;;;;;;32.47;20.90;;;8.70;99.90;;;;;;5001772;28;20548;-46
2022/03/17 08:26:00;;;;;;;30.10;20.80;;;8.70;99.90;;;;;;5004962;28;20281;-46
2022/03/17 08:28:27;;;;;;;28.87;20.27;;;8.80;99.90;;;;;;4997578;28;20416;-45
2022/03/17 08:30:54;;;;;;;29.90;20.30;;;8.80;99.90;;;;;;4988769;28;20413;-44
2022/03/17 08:33:21;;;;;;;31.23;20.10;;;8.90;99.90;;;;;;5003880;28;20304;-45
2022/03/17 08:35:48;;;;;;;27.70;19.50;;;8.90;99.90;;;;;;4993811;28;20465;-46
2022/03/17 08:38:15;;;;;;;29.87;19.03;;;8.90;99.90;;;;;;5008048;28;20221;-45
2022/03/17 08:40:44;;;;;;;25.53;16.33;;;9.00;99.90;;;;;;5000563;28;20207;-46
2022/03/17 08:43:13;;;;;;;21.63;12.93;;;9.10;99.90;;;;;;5008105;28;20571;-45
2022/03/17 08:51:10;;;;;;;16.10;11.53;;;9.10;99.90;;;;;;5019463;28;20299;-46
2022/03/17 08:53:37;;;;;;;16.97;11.23;;;9.10;99.90;;;;;;4990635;28;20626;-45
2022/03/17 08:56:06;;;;;;;16.90;10.90;;;9.00;99.90;;;;;;5007392;28;20273;-46
2022/03/17 08:58:35;;;;;;;16.37;10.47;;;9.00;99.90;;;;;;5007218;28;20215;-45
2022/03/17 09:01:02;;;;;;;18.50;9.40;;;9.00;99.90;;;;;;5004512;28;20256;-46
2022/03/17 09:03:30;;;;;;;14.60;8.67;;;8.90;99.90;;;;;;4992069;28;20352;-47
2022/03/17 09:05:58;;;;;;;16.23;8.83;;;8.90;99.90;;;;;;4999985;28;20285;-47
2022/03/17 09:08:25;;;;;;;10.57;7.57;;;8.80;99.90;;;;;;4988733;28;20221;-46
2022/03/17 09:10:52;;;;;;;10.00;6.50;;;8.80;99.90;;;;;;5007601;28;20222;-47
2022/03/17 09:13:20;;;;;;;11.50;5.40;;;8.70;99.90;;;;;;4999259;28;20226;-45
2022/03/17 09:15:49;;;;;;;11.03;5.03;;;8.70;99.90;;;;;;5014387;28;20230;-47
2022/03/17 09:18:16;;;;;;;8.13;5.10;;;8.60;99.90;;;;;;5003090;28;20619;-46
2022/03/17 09:20:43;;;;;;;6.73;4.50;;;8.70;99.90;;;;;;5007811;28;20233;-46
2022/03/17 09:23:10;;;;;;;9.07;4.90;;;8.70;99.90;;;;;;4985176;28;20508;-46
2022/03/17 09:25:37;;;;;;;9.03;4.20;;;8.70;99.90;;;;;;5017808;28;20506;-45
2022/03/17 09:28:05;;;;;;;8.40;3.63;;;8.80;99.90;;;;;;4992417;28;20554;-45
2022/03/17 09:30:34;;;;;;;13.27;4.30;;;8.50;99.90;;;;;;5017327;28;20227;-45
2022/03/17 09:33:03;;;;;;;5.43;3.10;;;8.50;99.90;;;;;;5000715;28;21022;-45
2022/03/17 09:35:30;;;;;;;5.70;2.97;;;8.50;99.90;;;;;;5004015;28;20236;-45
2022/03/17 09:37:57;;;;;;;7.53;2.83;;;8.40;99.90;;;;;;4998030;28;20505;-46
2022/03/17 09:40:24;;;;;;;9.13;2.67;;;8.40;99.90;;;;;;5004533;28;20280;-48
2022/03/17 09:43:18;;;;;;;7.40;2.77;;;8.30;99.90;;;;;;4979776;28;20301;-49
2022/03/17 09:45:42;;;;;;;10.80;2.60;;;8.40;99.90;;;;;;5017381;28;20424;-45
2022/03/17 09:48:10;;;;;;;8.37;2.80;;;8.40;99.90;;;;;;4996067;28;20212;-45
2022/03/17 09:50:38;;;;;;;9.43;2.87;;;8.40;99.90;;;;;;5009088;28;20223;-44
2022/03/17 09:53:05;;;;;;;8.63;2.73;;;8.50;99.90;;;;;;5014946;28;20297;-45
2022/03/17 09:55:33;;;;;;;9.63;3.10;;;8.50;99.90;;;;;;5004545;28;20282;-45
2022/03/17 09:58:00;;;;;;;7.97;3.00;;;8.50;99.90;;;;;;5004435;28;20206;-45
2022/03/17 10:00:47;;;;;;;6.10;2.70;;;8.50;99.90;;;;;;4997394;28;20411;-46
2022/03/17 10:03:15;;;;;;;7.03;2.70;;;8.50;99.90;;;;;;4994035;28;20229;-45
2022/03/17 10:05:45;;;;;;;5.03;2.13;;;8.60;99.90;;;;;;5003354;28;20210;-45
2022/03/17 10:08:12;;;;;;;4.87;1.70;;;8.50;99.90;;;;;;5015931;28;20233;-46
2022/03/17 10:10:40;;;;;;;5.57;1.60;;;8.40;99.90;;;;;;5002166;28;20378;-46
2022/03/17 10:13:10;;;;;;;3.87;1.70;;;8.40;99.90;;;;;;5022842;28;20229;-46
2022/03/17 10:15:37;;;;;;;8.70;1.80;;;8.40;99.90;;;;;;4992184;28;20202;-45
2022/03/17 10:18:20;;;;;;;7.13;1.70;;;8.40;99.90;;;;;;5003337;28;20483;-45
2022/03/17 10:20:47;;;;;;;4.40;1.30;;;8.40;99.90;;;;;;5006458;28;20198;-45
2022/03/17 10:23:23;;;;;;;5.80;1.80;;;8.40;99.90;;;;;;4997599;28;20425;-44
2022/03/17 10:25:57;;;;;;;4.97;1.40;;;8.50;99.90;;;;;;4997598;28;20240;-46
2022/03/17 10:28:26;;;;;;;6.60;1.70;;;8.40;99.90;;;;;;5010548;28;20233;-48
2022/03/17 10:31:03;;;;;;;14.80;1.60;;;8.50;99.90;;;;;;5005904;28;20589;-45
2022/03/17 10:33:32;;;;;;;3.13;1.03;;;8.50;99.90;;;;;;5006582;28;20234;-50
2022/03/17 10:36:14;;;;;;;4.43;1.47;;;8.70;99.90;;;;;;5016028;28;20237;-43
2022/03/17 10:38:44;;;;;;;9.13;1.40;;;8.70;99.90;;;;;;5004494;28;20451;-45
2022/03/17 10:41:12;;;;;;;5.33;1.40;;;8.60;99.90;;;;;;4994871;28;20210;-45
2022/03/17 10:43:41;;;;;;;5.17;1.23;;;8.60;99.90;;;;;;5003410;28;20225;-47
2022/03/17 10:46:09;;;;;;;6.53;1.40;;;8.60;99.90;;;;;;5006179;28;20521;-46
2022/03/17 10:48:54;;;;;;;5.17;1.40;;;8.60;99.90;;;;;;5017795;28;20201;-43
2022/03/17 10:51:34;;;;;;;8.63;1.40;;;8.50;99.90;;;;;;5000896;28;20265;-48
2022/03/17 10:54:08;;;;;;;11.63;2.03;;;8.50;99.90;;;;;;5004661;28;20229;-46
2022/03/17 10:56:37;;;;;;;16.83;2.30;;;8.40;99.90;;;;;;4998406;28;20526;-45
2022/03/17 10:59:05;;;;;;;7.20;2.00;;;8.40;99.90;;;;;;5009361;28;20213;-46
2022/03/17 11:01:42;;;;;;;6.03;1.73;;;8.40;99.90;;;;;;5000674;28;20216;-48
2022/03/17 11:04:11;;;;;;;7.03;1.50;;;8.30;99.90;;;;;;5016423;28;20440;-45
2022/03/17 11:06:39;;;;;;;9.70;1.70;;;8.30;99.90;;;;;;4997420;28;20661;-48
2022/03/17 11:09:08;;;;;;;9.40;1.87;;;8.30;99.90;;;;;;5000925;28;20214;-46
2022/03/17 11:11:35;;;;;;;15.03;2.17;;;8.40;99.90;;;;;;4994956;28;20732;-45
2022/03/17 11:14:03;;;;;;;5.80;1.60;;;8.40;99.90;;;;;;5009944;28;20237;-45
2022/03/17 11:16:35;;;;;;;13.37;1.93;;;8.40;99.90;;;;;;5006660;28;20305;-46
2022/03/17 11:19:03;;;;;;;11.53;1.70;;;8.40;99.90;;;;;;5022921;28;20838;-45
2022/03/17 11:21:32;;;;;;;7.00;1.80;;;8.50;99.90;;;;;;5005288;28;20214;-46
2022/03/17 11:24:04;;;;;;;15.13;2.57;;;8.40;99.90;;;;;;5007553;28;20305;-46
2022/03/17 11:26:35;;;;;;;8.77;1.90;;;8.30;99.90;;;;;;5001110;28;20214;-46
2022/03/17 11:29:08;;;;;;;12.20;2.07;;;8.30;99.90;;;;;;5013168;28;20218;-45
2022/03/17 11:31:59;;;;;;;8.93;2.00;;;8.30;99.90;;;;;;5000988;28;20229;-46
2022/03/17 11:34:42;;;;;;;7.30;1.80;;;8.50;99.90;;;;;;5014414;28;20252;-46
2022/03/17 11:37:30;;;;;;;6.23;1.83;;;8.60;99.90;;;;;;4973143;28;20210;-46
2022/03/17 11:39:59;;;;;;;8.77;2.17;;;8.60;99.90;;;;;;5007007;28;20577;-46
2022/03/17 11:42:38;;;;;;;10.17;2.10;;;8.60;99.90;;;;;;4985376;28;20235;-45
2022/03/17 11:45:40;;;;;;;9.77;1.77;;;8.60;99.90;;;;;;5006510;28;20533;-46
2022/03/17 11:48:14;;;;;;;4.47;1.40;;;8.50;99.90;;;;;;5007288;28;20414;-46
2022/03/17 11:50:48;;;;;;;6.30;1.30;;;8.40;99.90;;;;;;5014396;28;20347;-45
2022/03/17 11:53:39;;;;;;;6.90;2.10;;;8.30;99.90;;;;;;5002667;28;20245;-45
2022/03/17 11:56:09;;;;;;;5.13;1.50;;;8.30;99.90;;;;;;5005366;28;20413;-45
2022/03/17 11:58:42;;;;;;;8.63;1.50;;;8.20;99.90;;;;;;4987021;28;20224;-45
2022/03/17 12:01:15;;;;;;;4.40;1.50;;;8.20;99.90;;;;;;5005036;28;20439;-45
2022/03/17 12:03:46;;;;;;;6.30;1.43;;;8.20;99.90;;;;;;5003981;28;20253;-45
2022/03/17 12:06:16;;;;;;;5.87;1.80;;;8.20;99.90;;;;;;5013540;28;22973;-45
2022/03/17 12:08:52;;;;;;;8.83;1.60;;;7.90;99.90;;;;;;5002246;28;20212;-45
2022/03/17 12:11:22;;;;;;;4.33;1.20;;;8.30;99.90;;;;;;5007987;28;20405;-45
2022/03/17 12:14:21;;;;;;;6.97;1.70;;;8.20;99.90;;;;;;4986569;28;20233;-44
2022/03/17 12:16:51;;;;;;;8.60;2.00;;;8.20;99.90;;;;;;5006857;28;20285;-44
2022/03/17 12:19:35;;;;;;;6.50;1.40;;;8.20;99.90;;;;;;5005147;28;20267;-45
2022/03/17 12:22:17;;;;;;;9.83;2.23;;;8.20;99.90;;;;;;4999544;28;20424;-45
2022/03/17 12:24:47;;;;;;;9.67;1.90;;;8.20;99.90;;;;;;5004515;28;20209;-44
2022/03/17 12:27:17;;;;;;;11.90;1.97;;;8.30;99.90;;;;;;4996089;28;20219;-45
2022/03/17 12:29:46;;;;;;;6.77;2.13;;;8.30;99.90;;;;;;4993924;28;20224;-45
2022/03/17 12:32:14;;;;;;;6.93;2.20;;;8.40;99.90;;;;;;5002938;28;20250;-45
2022/03/17 12:34:44;;;;;;;12.90;2.30;;;8.50;99.90;;;;;;5004766;28;20211;-46
2022/03/17 12:37:11;;;;;;;7.67;1.97;;;8.50;99.90;;;;;;5017704;28;20414;-45
2022/03/17 12:39:39;;;;;;;6.37;1.77;;;8.50;99.90;;;;;;5002693;28;20240;-46
2022/03/17 12:42:20;;;;;;;8.60;2.23;;;8.50;99.90;;;;;;4989504;28;20206;-45
2022/03/17 12:44:52;;;;;;;8.17;2.67;;;8.50;99.90;;;;;;4997464;28;20220;-44
2022/03/17 12:47:20;;;;;;;6.03;1.90;;;8.60;99.90;;;;;;5008407;28;20410;-45
2022/03/17 12:49:49;;;;;;;8.93;2.50;;;8.60;99.90;;;;;;4992687;28;20295;-46
2022/03/17 12:52:20;;;;;;;7.13;2.20;;;8.80;99.90;;;;;;4992859;28;20535;-46
2022/03/17 12:54:48;;;;;;;6.30;1.63;;;8.80;99.90;;;;;;4984418;28;22624;-46
2022/03/17 12:57:16;;;;;;;8.43;2.30;;;8.90;99.90;;;;;;4973107;28;20438;-45
2022/03/17 12:59:43;;;;;;;6.27;2.13;;;9.00;99.90;;;;;;4984531;28;20206;-46
2022/03/17 13:02:16;;;;;;;7.73;2.10;;;9.20;99.90;;;;;;5012279;28;20301;-45
2022/03/17 13:04:44;;;;;;;9.13;2.13;;;9.30;99.90;;;;;;4991949;28;20226;-46
2022/03/17 13:07:12;;;;;;;7.80;2.03;;;9.50;99.90;;;;;;5009335;28;20202;-46